Time;durP1;ratioP1;P1;durP2;ratioP2;P2;SDS_P1;SDS_P2;PMS_P1;PMS_P2;Temp;Humidity;BMP_temperature;BMP_pressure;BME280_temperature;BME280_humidity;BME280_pressure;Samples;Min_cycle;Max_cycle;Signal;HPM_P1;HPM_P2
2022/09/30 00:01:21;;;;;;;12.17;4.20;;;;;;;;;;3348740;42;20103;-58
2022/09/30 00:03:48;;;;;;;14.30;4.10;;;;;;;;;;3346317;42;20105;-60
2022/09/30 00:06:14;;;;;;;10.48;4.00;;;;;;;;;;3348615;42;20085;-61
2022/09/30 00:08:40;;;;;;;13.13;4.18;;;;;;;;;;3348980;42;20598;-60
2022/09/30 00:11:12;;;;;;;11.27;4.18;;;;;;;;;;3348218;42;20514;-59
2022/09/30 00:13:39;;;;;;;17.53;4.27;;;;;;;;;;3346385;42;20088;-57
2022/09/30 00:16:05;;;;;;;13.38;4.40;;;;;;;;;;3347846;42;20166;-60
2022/09/30 00:18:31;;;;;;;15.38;4.25;;;;;;;;;;3348252;42;20156;-60
2022/09/30 00:20:58;;;;;;;10.13;4.03;;;;;;;;;;3345084;42;20092;-61
2022/09/30 00:23:24;;;;;;;13.02;4.20;;;;;;;;;;3347866;42;20156;-60
2022/09/30 00:25:50;;;;;;;11.23;4.00;;;;;;;;;;3348403;42;20144;-59
2022/09/30 00:28:16;;;;;;;12.43;3.78;;;;;;;;;;3348153;42;20122;-59
2022/09/30 00:30:42;;;;;;;11.13;4.10;;;;;;;;;;3348185;42;20131;-60
2022/09/30 00:33:08;;;;;;;10.63;3.95;;;;;;;;;;3348198;42;20183;-60
2022/09/30 00:35:35;;;;;;;13.85;4.15;;;;;;;;;;3348105;42;20098;-57
2022/09/30 00:38:01;;;;;;;15.70;4.13;;;;;;;;;;3347391;42;20542;-60
2022/09/30 00:40:29;;;;;;;13.70;4.68;;;;;;;;;;3347927;42;20151;-60
2022/09/30 00:42:55;;;;;;;14.90;4.30;;;;;;;;;;3347627;42;20205;-57
2022/09/30 00:45:21;;;;;;;16.58;4.07;;;;;;;;;;3347677;42;20103;-60
2022/09/30 00:47:51;;;;;;;12.20;4.55;;;;;;;;;;3348105;42;20119;-60
2022/09/30 00:50:35;;;;;;;20.27;4.30;;;;;;;;;;3346602;42;20088;-59
2022/09/30 00:53:35;;;;;;;19.88;4.35;;;;;;;;;;3347808;42;20208;-58
2022/09/30 00:56:03;;;;;;;27.55;4.10;;;;;;;;;;3346037;42;20092;-58
2022/09/30 00:58:34;;;;;;;28.38;4.70;;;;;;;;;;3346247;42;20515;-59
2022/09/30 01:01:01;;;;;;;14.63;4.70;;;;;;;;;;3346600;42;20560;-60
2022/09/30 01:03:31;;;;;;;12.23;4.60;;;;;;;;;;3347445;42;20119;-57
2022/09/30 01:05:57;;;;;;;14.35;4.22;;;;;;;;;;3348137;42;20166;-56
2022/09/30 01:08:23;;;;;;;11.27;3.85;;;;;;;;;;3347618;42;20084;-59
2022/09/30 01:10:49;;;;;;;14.60;4.55;;;;;;;;;;3339707;42;279434;-58
2022/09/30 01:13:16;;;;;;;15.60;4.60;;;;;;;;;;3348211;42;20100;-59
2022/09/30 01:16:05;;;;;;;14.40;4.07;;;;;;;;;;3346861;42;20107;-60
2022/09/30 01:18:41;;;;;;;29.60;4.43;;;;;;;;;;3346871;42;20167;-60
2022/09/30 01:22:07;;;;;;;22.02;4.55;;;;;;;;;;3346293;42;20196;-60
2022/09/30 01:24:43;;;;;;;21.70;4.88;;;;;;;;;;3323376;43;20113;-57
2022/09/30 01:27:29;;;;;;;32.38;5.20;;;;;;;;;;3323136;42;20077;-61
2022/09/30 01:30:01;;;;;;;44.70;5.23;;;;;;;;;;3339707;42;20096;-56
2022/09/30 01:32:44;;;;;;;31.95;4.80;;;;;;;;;;3349745;42;20171;-59
2022/09/30 01:35:19;;;;;;;25.73;5.05;;;;;;;;;;3348595;42;20140;-58
2022/09/30 01:38:07;;;;;;;18.30;5.10;;;;;;;;;;3349807;42;20093;-61
2022/09/30 01:40:42;;;;;;;30.27;5.13;;;;;;;;;;3350018;42;20135;-58
2022/09/30 01:43:28;;;;;;;27.50;5.00;;;;;;;;;;3349758;42;20149;-59
2022/09/30 01:46:05;;;;;;;39.92;5.90;;;;;;;;;;3349829;42;20092;-60
2022/09/30 01:48:56;;;;;;;34.67;5.85;;;;;;;;;;3348614;42;20089;-59
2022/09/30 01:51:41;;;;;;;35.03;5.78;;;;;;;;;;3348335;42;20135;-60
2022/09/30 01:54:20;;;;;;;39.30;5.40;;;;;;;;;;3348376;42;20143;-58
2022/09/30 01:56:49;;;;;;;19.43;4.90;;;;;;;;;;3351112;42;20093;-59
2022/09/30 01:59:19;;;;;;;45.00;6.63;;;;;;;;;;3348050;42;20085;-58
2022/09/30 02:02:09;;;;;;;37.33;5.28;;;;;;;;;;3348062;42;20116;-59
2022/09/30 02:04:43;;;;;;;19.98;4.85;;;;;;;;;;3345152;42;20100;-59
2022/09/30 02:07:16;;;;;;;23.00;5.60;;;;;;;;;;3348230;42;20085;-59
2022/09/30 02:10:02;;;;;;;18.23;5.67;;;;;;;;;;3347193;42;20100;-58
2022/09/30 02:12:31;;;;;;;13.95;4.93;;;;;;;;;;3345883;42;20124;-56
2022/09/30 02:15:11;;;;;;;12.05;4.65;;;;;;;;;;3340830;42;20078;-58
2022/09/30 02:17:39;;;;;;;12.10;4.38;;;;;;;;;;3347801;42;20124;-61
2022/09/30 02:20:07;;;;;;;12.52;4.78;;;;;;;;;;3349443;42;20109;-58
2022/09/30 02:22:42;;;;;;;12.97;4.10;;;;;;;;;;3348122;42;20100;-61
2022/09/30 02:25:10;;;;;;;10.52;4.15;;;;;;;;;;3348013;42;20140;-60
2022/09/30 02:27:41;;;;;;;12.77;4.55;;;;;;;;;;3348134;42;20095;-58
2022/09/30 02:30:08;;;;;;;13.38;5.40;;;;;;;;;;3344757;42;20849;-61
2022/09/30 02:32:37;;;;;;;10.43;4.47;;;;;;;;;;3348727;42;20092;-60
2022/09/30 02:35:10;;;;;;;12.57;3.97;;;;;;;;;;3347933;42;20099;-58
2022/09/30 02:38:04;;;;;;;10.93;4.20;;;;;;;;;;3349331;42;20156;-59
2022/09/30 02:40:38;;;;;;;10.90;4.85;;;;;;;;;;3345672;42;20104;-56
2022/09/30 02:43:04;;;;;;;9.63;3.83;;;;;;;;;;3346216;42;20100;-59
2022/09/30 02:45:32;;;;;;;11.02;4.38;;;;;;;;;;3347463;42;20156;-60
2022/09/30 02:48:17;;;;;;;11.93;4.73;;;;;;;;;;3340878;42;20155;-56
2022/09/30 02:50:49;;;;;;;14.32;5.00;;;;;;;;;;3350212;42;20885;-60
2022/09/30 02:53:41;;;;;;;11.93;4.50;;;;;;;;;;3347875;42;20135;-57
2022/09/30 02:56:12;;;;;;;12.35;4.20;;;;;;;;;;3347212;42;20144;-61
2022/09/30 02:58:39;;;;;;;10.60;3.88;;;;;;;;;;3347171;42;20132;-59
2022/09/30 03:01:12;;;;;;;10.50;4.03;;;;;;;;;;3348649;42;20081;-59
2022/09/30 03:03:42;;;;;;;11.98;4.32;;;;;;;;;;3349184;42;20231;-58
2022/09/30 03:06:08;;;;;;;10.93;4.60;;;;;;;;;;3348604;42;20093;-60
2022/09/30 03:08:34;;;;;;;11.48;4.53;;;;;;;;;;3349435;42;20586;-59
2022/09/30 03:11:00;;;;;;;10.40;4.43;;;;;;;;;;3348816;42;20089;-57
2022/09/30 03:13:54;;;;;;;14.57;4.53;;;;;;;;;;3347358;42;20100;-61
2022/09/30 03:16:39;;;;;;;11.43;4.57;;;;;;;;;;3347817;42;20095;-59
2022/09/30 03:19:24;;;;;;;13.35;4.80;;;;;;;;;;3352500;42;20101;-60
2022/09/30 03:21:56;;;;;;;13.05;4.55;;;;;;;;;;3347750;42;20092;-59
2022/09/30 03:24:25;;;;;;;12.20;5.10;;;;;;;;;;3346894;42;20088;-58
2022/09/30 03:27:13;;;;;;;11.27;4.60;;;;;;;;;;3349810;42;20555;-59
2022/09/30 03:29:57;;;;;;;12.00;4.78;;;;;;;;;;3348934;42;20539;-59
2022/09/30 03:32:42;;;;;;;11.50;4.50;;;;;;;;;;3345995;42;20116;-60
2022/09/30 03:35:20;;;;;;;12.10;4.75;;;;;;;;;;3347455;42;20085;-60
2022/09/30 03:38:11;;;;;;;10.43;4.40;;;;;;;;;;3346978;42;20085;-59
2022/09/30 03:40:48;;;;;;;12.53;5.23;;;;;;;;;;3349134;42;20093;-60
2022/09/30 03:43:28;;;;;;;11.50;4.88;;;;;;;;;;3346955;42;20142;-61
2022/09/30 03:46:23;;;;;;;10.77;4.55;;;;;;;;;;3348365;42;20152;-61
2022/09/30 03:48:50;;;;;;;12.48;5.18;;;;;;;;;;3347120;42;20088;-57
2022/09/30 03:51:16;;;;;;;12.77;4.70;;;;;;;;;;3348821;42;20140;-59
2022/09/30 03:53:43;;;;;;;12.33;5.27;;;;;;;;;;3349977;42;20569;-58
2022/09/30 03:56:08;;;;;;;13.63;5.13;;;;;;;;;;3351709;42;20092;-62
2022/09/30 03:58:35;;;;;;;11.43;4.95;;;;;;;;;;3351994;42;20081;-58
2022/09/30 04:01:01;;;;;;;10.60;4.55;;;;;;;;;;3343414;42;20156;-63
2022/09/30 04:03:27;;;;;;;11.23;4.72;;;;;;;;;;3351821;42;20116;-59
2022/09/30 04:05:53;;;;;;;13.40;5.00;;;;;;;;;;3352615;42;20213;-60
2022/09/30 04:08:19;;;;;;;17.27;5.40;;;;;;;;;;3352489;42;20829;-59
2022/09/30 04:10:45;;;;;;;13.75;5.57;;;;;;;;;;3350812;42;20629;-60
2022/09/30 04:13:11;;;;;;;11.88;5.60;;;;;;;;;;3351772;42;20100;-62
2022/09/30 04:15:37;;;;;;;13.10;4.60;;;;;;;;;;3352634;42;20084;-58
2022/09/30 04:18:04;;;;;;;12.00;5.50;;;;;;;;;;3352284;42;20088;-61
2022/09/30 04:20:30;;;;;;;12.68;5.00;;;;;;;;;;3351942;42;21448;-59
2022/09/30 04:22:58;;;;;;;10.90;4.80;;;;;;;;;;3350481;42;20104;-60
2022/09/30 04:25:24;;;;;;;14.98;4.97;;;;;;;;;;3352357;42;20092;-59
2022/09/30 04:27:50;;;;;;;11.90;5.32;;;;;;;;;;3352005;42;20143;-59
2022/09/30 04:30:16;;;;;;;12.50;5.10;;;;;;;;;;3352509;42;20081;-61
2022/09/30 04:32:44;;;;;;;12.98;5.10;;;;;;;;;;3350843;42;20077;-59
2022/09/30 04:35:12;;;;;;;10.82;4.82;;;;;;;;;;3352019;42;20191;-59
2022/09/30 04:37:44;;;;;;;14.30;5.90;;;;;;;;;;3349861;42;20150;-60
2022/09/30 04:40:13;;;;;;;12.60;5.23;;;;;;;;;;3348067;42;20140;-59
2022/09/30 04:42:41;;;;;;;13.32;5.68;;;;;;;;;;3347388;42;20591;-59
2022/09/30 04:45:11;;;;;;;12.25;5.95;;;;;;;;;;3347931;42;20212;-60
2022/09/30 04:47:37;;;;;;;15.95;5.95;;;;;;;;;;3348138;42;20097;-62
2022/09/30 04:50:04;;;;;;;13.20;5.82;;;;;;;;;;3347778;42;20092;-61
2022/09/30 04:52:30;;;;;;;12.67;5.40;;;;;;;;;;3348040;42;20128;-61
2022/09/30 04:54:57;;;;;;;14.70;5.03;;;;;;;;;;3347341;42;20089;-62
2022/09/30 04:57:24;;;;;;;11.30;5.30;;;;;;;;;;3348253;42;20093;-61
2022/09/30 04:59:50;;;;;;;10.82;4.43;;;;;;;;;;3348380;42;20153;-61
2022/09/30 05:02:16;;;;;;;11.20;4.93;;;;;;;;;;3347835;42;20140;-65
2022/09/30 05:04:42;;;;;;;10.97;4.90;;;;;;;;;;3347971;42;20192;-60
2022/09/30 05:07:08;;;;;;;12.77;5.15;;;;;;;;;;3347983;42;20091;-60
2022/09/30 05:09:34;;;;;;;10.27;4.45;;;;;;;;;;3351448;42;20191;-60
2022/09/30 05:12:02;;;;;;;10.50;5.05;;;;;;;;;;3347965;42;20088;-61
2022/09/30 05:14:28;;;;;;;13.10;5.23;;;;;;;;;;3348037;42;20119;-57
2022/09/30 05:16:54;;;;;;;10.73;4.82;;;;;;;;;;3350310;42;20578;-61
2022/09/30 05:19:20;;;;;;;17.98;5.32;;;;;;;;;;3357579;42;20099;-61
2022/09/30 05:21:46;;;;;;;19.27;8.88;;;;;;;;;;3350954;42;20096;-61
2022/09/30 05:24:13;;;;;;;11.90;5.67;;;;;;;;;;3347986;42;20113;-60
2022/09/30 05:26:42;;;;;;;11.38;5.38;;;;;;;;;;3349978;42;20092;-61
2022/09/30 05:29:08;;;;;;;11.68;5.32;;;;;;;;;;3347139;42;20100;-61
2022/09/30 05:31:34;;;;;;;12.80;5.10;;;;;;;;;;3351863;42;20505;-60
2022/09/30 05:34:00;;;;;;;11.20;5.10;;;;;;;;;;3350638;42;20084;-59
2022/09/30 05:36:26;;;;;;;12.02;5.38;;;;;;;;;;3350215;42;20089;-61
2022/09/30 05:38:52;;;;;;;12.15;5.00;;;;;;;;;;3353042;42;20140;-61
2022/09/30 05:41:19;;;;;;;11.52;5.38;;;;;;;;;;3349528;42;20532;-61
2022/09/30 05:43:48;;;;;;;9.87;4.87;;;;;;;;;;3347669;42;20499;-61
2022/09/30 05:46:15;;;;;;;12.75;5.40;;;;;;;;;;3347570;42;20576;-61
2022/09/30 05:48:41;;;;;;;10.50;4.70;;;;;;;;;;3347564;42;20081;-62
2022/09/30 05:51:08;;;;;;;25.30;12.10;;;;;;;;;;3347994;42;20085;-61
2022/09/30 05:53:37;;;;;;;12.98;6.30;;;;;;;;;;3347981;42;20176;-60
2022/09/30 05:56:07;;;;;;;11.57;5.33;;;;;;;;;;3347793;42;20137;-60
2022/09/30 05:58:33;;;;;;;9.98;5.05;;;;;;;;;;3347544;42;20200;-60
2022/09/30 06:01:06;;;;;;;10.65;4.78;;;;;;;;;;3347799;42;20096;-59
2022/09/30 06:03:32;;;;;;;10.68;4.75;;;;;;;;;;3348332;42;20124;-61
2022/09/30 06:05:58;;;;;;;11.33;5.30;;;;;;;;;;3347369;42;20535;-59
2022/09/30 06:08:24;;;;;;;11.20;4.93;;;;;;;;;;3347478;42;20626;-64
2022/09/30 06:10:50;;;;;;;11.02;5.55;;;;;;;;;;3347426;42;20650;-61
2022/09/30 06:13:16;;;;;;;12.75;4.60;;;;;;;;;;3347659;42;20119;-60
2022/09/30 06:15:43;;;;;;;10.77;4.90;;;;;;;;;;3348958;42;20113;-61
2022/09/30 06:18:09;;;;;;;11.30;4.40;;;;;;;;;;3348255;42;20835;-61
2022/09/30 06:20:36;;;;;;;11.32;4.78;;;;;;;;;;3349243;42;20092;-58
2022/09/30 06:23:02;;;;;;;10.50;4.55;;;;;;;;;;3349182;42;20097;-61
2022/09/30 06:25:28;;;;;;;10.00;4.57;;;;;;;;;;3346229;42;20144;-59
2022/09/30 06:27:54;;;;;;;9.00;4.45;;;;;;;;;;3349102;42;21054;-60
2022/09/30 06:30:20;;;;;;;9.17;4.07;;;;;;;;;;3349309;42;20436;-60
2022/09/30 06:32:46;;;;;;;9.43;4.30;;;;;;;;;;3349117;42;20099;-52
2022/09/30 06:35:13;;;;;;;8.73;4.18;;;;;;;;;;3348693;42;20100;-58
2022/09/30 06:37:40;;;;;;;8.65;3.90;;;;;;;;;;3349119;42;20103;-63
2022/09/30 06:40:07;;;;;;;10.48;3.95;;;;;;;;;;3349155;42;20093;-59
2022/09/30 06:42:33;;;;;;;8.37;4.10;;;;;;;;;;3348503;42;20164;-60
2022/09/30 06:44:59;;;;;;;11.07;3.90;;;;;;;;;;3348824;42;20159;-61
2022/09/30 06:47:25;;;;;;;8.88;3.80;;;;;;;;;;3348655;42;20140;-60
2022/09/30 06:49:57;;;;;;;8.40;3.75;;;;;;;;;;3348903;42;20585;-60
2022/09/30 06:52:24;;;;;;;8.15;3.90;;;;;;;;;;3350941;42;20080;-59
2022/09/30 06:54:51;;;;;;;9.50;4.47;;;;;;;;;;3348978;42;20587;-61
2022/09/30 06:57:21;;;;;;;8.52;3.72;;;;;;;;;;3348886;42;20099;-61
2022/09/30 06:59:48;;;;;;;8.77;4.00;;;;;;;;;;3354434;42;20119;-62
2022/09/30 07:02:14;;;;;;;8.85;4.63;;;;;;;;;;3348602;42;20093;-59
2022/09/30 07:04:39;;;;;;;9.53;4.07;;;;;;;;;;3348933;42;20171;-63
2022/09/30 07:07:06;;;;;;;8.23;3.75;;;;;;;;;;3348810;42;20304;-61
2022/09/30 07:09:32;;;;;;;9.77;3.75;;;;;;;;;;3347343;42;20096;-59
2022/09/30 07:11:57;;;;;;;9.98;4.05;;;;;;;;;;3348528;42;20119;-61
2022/09/30 07:14:23;;;;;;;7.60;3.50;;;;;;;;;;3348323;42;20109;-62
2022/09/30 07:16:52;;;;;;;7.53;3.73;;;;;;;;;;3348544;42;20118;-59
2022/09/30 07:19:21;;;;;;;8.60;3.97;;;;;;;;;;3347400;42;20228;-61
2022/09/30 07:21:48;;;;;;;10.18;3.95;;;;;;;;;;3348500;42;20081;-61
2022/09/30 07:24:15;;;;;;;8.30;3.70;;;;;;;;;;3348538;42;20100;-62
2022/09/30 07:26:43;;;;;;;8.43;3.87;;;;;;;;;;3348103;42;20077;-61
2022/09/30 07:29:12;;;;;;;7.15;3.60;;;;;;;;;;3348436;42;20147;-62
2022/09/30 07:31:38;;;;;;;7.88;3.80;;;;;;;;;;3348697;42;20105;-63
2022/09/30 07:34:07;;;;;;;8.25;3.80;;;;;;;;;;3348884;42;20120;-64
2022/09/30 07:36:34;;;;;;;7.68;3.58;;;;;;;;;;3348276;42;20096;-60
2022/09/30 07:39:04;;;;;;;9.67;3.83;;;;;;;;;;3348463;42;20524;-59
2022/09/30 07:41:30;;;;;;;8.45;3.88;;;;;;;;;;3348320;42;20092;-61
2022/09/30 07:43:57;;;;;;;9.30;3.75;;;;;;;;;;3348383;42;20152;-61
2022/09/30 07:46:25;;;;;;;8.15;4.15;;;;;;;;;;3348327;42;20128;-61
2022/09/30 07:48:53;;;;;;;8.07;3.88;;;;;;;;;;3348351;42;20128;-61
2022/09/30 07:51:30;;;;;;;8.33;4.10;;;;;;;;;;3348389;42;20077;-60
2022/09/30 07:53:58;;;;;;;7.53;3.50;;;;;;;;;;3348199;42;20228;-61
2022/09/30 07:56:24;;;;;;;7.88;3.97;;;;;;;;;;3348516;42;20136;-60
2022/09/30 07:58:58;;;;;;;7.75;3.90;;;;;;;;;;3348274;42;20089;-62
2022/09/30 08:01:25;;;;;;;9.90;3.72;;;;;;;;;;3348317;42;20088;-63
2022/09/30 08:03:54;;;;;;;7.97;3.30;;;;;;;;;;3349291;42;20151;-60
2022/09/30 08:06:21;;;;;;;8.05;3.28;;;;;;;;;;3347944;42;20092;-60
2022/09/30 08:08:49;;;;;;;7.72;3.30;;;;;;;;;;3348510;42;20464;-59
2022/09/30 08:11:15;;;;;;;9.63;3.40;;;;;;;;;;3346540;42;20502;-60
2022/09/30 08:13:41;;;;;;;12.02;3.90;;;;;;;;;;3347792;42;20139;-63
2022/09/30 08:16:08;;;;;;;8.47;3.23;;;;;;;;;;3346731;42;20080;-60
2022/09/30 08:18:34;;;;;;;9.18;3.50;;;;;;;;;;3347965;42;20106;-62
2022/09/30 08:21:04;;;;;;;10.02;3.80;;;;;;;;;;3348151;42;20092;-58
2022/09/30 08:23:30;;;;;;;8.80;3.58;;;;;;;;;;3339288;42;20156;-60
2022/09/30 08:26:03;;;;;;;8.77;3.58;;;;;;;;;;3348350;42;20159;-62
2022/09/30 08:28:32;;;;;;;8.43;3.73;;;;;;;;;;3347914;42;20161;-62
2022/09/30 08:31:11;;;;;;;8.23;4.07;;;;;;;;;;3348230;42;20076;-61
2022/09/30 08:33:37;;;;;;;8.05;3.75;;;;;;;;;;3347841;42;20132;-60
2022/09/30 08:36:08;;;;;;;7.53;3.63;;;;;;;;;;3346724;42;20088;-61
2022/09/30 08:38:34;;;;;;;7.78;3.97;;;;;;;;;;3345244;42;20091;-61
2022/09/30 08:41:14;;;;;;;8.50;4.20;;;;;;;;;;3348002;42;20554;-63
2022/09/30 08:44:02;;;;;;;8.13;4.10;;;;;;;;;;3339203;42;20569;-61
2022/09/30 08:46:40;;;;;;;9.27;3.75;;;;;;;;;;3345106;42;20128;-62
2022/09/30 08:49:38;;;;;;;9.32;4.25;;;;;;;;;;3346490;42;20095;-60
2022/09/30 08:52:27;;;;;;;9.10;4.05;;;;;;;;;;3342864;42;20156;-62
2022/09/30 08:54:53;;;;;;;8.83;4.07;;;;;;;;;;3344480;42;20104;-61
2022/09/30 08:57:19;;;;;;;8.57;4.30;;;;;;;;;;3345250;42;20081;-61
2022/09/30 08:59:46;;;;;;;9.18;4.20;;;;;;;;;;3346645;42;20081;-62
2022/09/30 09:02:20;;;;;;;10.82;4.57;;;;;;;;;;3347402;42;20649;-56
2022/09/30 09:04:47;;;;;;;11.10;4.53;;;;;;;;;;3348871;42;20087;-61
2022/09/30 09:07:47;;;;;;;12.20;4.97;;;;;;;;;;3347789;42;20097;-60
2022/09/30 09:10:36;;;;;;;10.05;4.45;;;;;;;;;;3347869;42;20085;-65
2022/09/30 09:13:24;;;;;;;11.38;4.38;;;;;;;;;;3346475;42;20140;-61
2022/09/30 09:16:01;;;;;;;8.93;4.43;;;;;;;;;;3346062;42;20135;-60
2022/09/30 09:18:39;;;;;;;10.63;4.80;;;;;;;;;;3346556;42;20103;-60
2022/09/30 09:21:36;;;;;;;12.27;5.20;;;;;;;;;;3347671;42;20080;-58
2022/09/30 09:24:02;;;;;;;10.70;5.40;;;;;;;;;;3345285;42;20160;-59
2022/09/30 09:26:35;;;;;;;11.18;5.22;;;;;;;;;;3345129;42;20088;-60
2022/09/30 09:29:00;;;;;;;11.68;5.05;;;;;;;;;;3347472;42;20081;-59
2022/09/30 09:31:26;;;;;;;10.23;5.07;;;;;;;;;;3348067;42;20632;-62
2022/09/30 09:33:55;;;;;;;11.60;5.18;;;;;;;;;;3347958;42;20099;-61
2022/09/30 09:36:54;;;;;;;10.82;5.05;;;;;;;;;;3345294;42;20151;-63
2022/09/30 09:39:35;;;;;;;11.52;5.13;;;;;;;;;;3346318;42;20093;-62
2022/09/30 09:42:40;;;;;;;11.18;5.55;;;;;;;;;;3347373;42;20646;-58
2022/09/30 09:45:21;;;;;;;11.43;5.20;;;;;;;;;;3340882;42;20096;-60
2022/09/30 09:47:51;;;;;;;10.50;5.10;;;;;;;;;;3348135;42;20132;-63
2022/09/30 09:50:24;;;;;;;10.07;5.43;;;;;;;;;;3350844;42;20554;-59
2022/09/30 09:53:15;;;;;;;16.42;5.47;;;;;;;;;;3352266;42;20077;-60
2022/09/30 09:55:41;;;;;;;11.02;5.40;;;;;;;;;;3352673;42;20128;-59
2022/09/30 09:58:10;;;;;;;11.73;5.50;;;;;;;;;;3348016;42;20117;-60
2022/09/30 10:03:12;;;;;;;11.30;5.40;;;;;;;;;;3348398;42;20144;-61
2022/09/30 10:05:38;;;;;;;10.60;4.82;;;;;;;;;;3349858;42;20076;-59
2022/09/30 10:08:18;;;;;;;9.75;5.10;;;;;;;;;;3349313;42;20097;-57
2022/09/30 10:10:55;;;;;;;10.17;4.97;;;;;;;;;;3350635;42;20108;-61
2022/09/30 10:13:22;;;;;;;10.45;5.03;;;;;;;;;;3351115;42;20093;-63
2022/09/30 10:15:49;;;;;;;12.55;4.70;;;;;;;;;;3352516;42;20093;-60
2022/09/30 10:18:20;;;;;;;10.40;5.05;;;;;;;;;;3344461;42;20099;-60
2022/09/30 10:20:55;;;;;;;9.85;4.95;;;;;;;;;;3352445;42;20109;-60
2022/09/30 10:23:29;;;;;;;10.27;5.00;;;;;;;;;;3349749;42;20526;-57
2022/09/30 10:26:02;;;;;;;9.43;4.95;;;;;;;;;;3350872;42;20554;-59
2022/09/30 10:28:33;;;;;;;9.73;4.90;;;;;;;;;;3347950;42;20080;-60
2022/09/30 10:31:03;;;;;;;10.07;5.15;;;;;;;;;;3350013;42;20208;-60
2022/09/30 10:33:34;;;;;;;11.00;4.72;;;;;;;;;;3352444;42;20124;-62
2022/09/30 10:36:00;;;;;;;13.23;4.77;;;;;;;;;;3351672;42;20139;-65
2022/09/30 10:38:28;;;;;;;9.32;4.53;;;;;;;;;;3352459;42;20561;-60
2022/09/30 10:40:54;;;;;;;11.20;4.78;;;;;;;;;;3350814;42;20136;-60
2022/09/30 10:43:28;;;;;;;10.52;4.38;;;;;;;;;;3349102;42;20144;-58
2022/09/30 10:45:54;;;;;;;12.35;4.65;;;;;;;;;;3348056;42;20089;-60
2022/09/30 10:48:22;;;;;;;10.97;4.83;;;;;;;;;;3345942;42;20784;-57
2022/09/30 10:50:52;;;;;;;10.13;4.32;;;;;;;;;;3345832;42;20080;-60
2022/09/30 10:53:28;;;;;;;11.48;5.10;;;;;;;;;;3347659;42;20163;-59
2022/09/30 10:55:55;;;;;;;9.55;4.38;;;;;;;;;;3347634;42;20753;-59
2022/09/30 10:58:38;;;;;;;9.15;4.32;;;;;;;;;;3346985;42;20139;-57
2022/09/30 11:01:23;;;;;;;9.63;4.60;;;;;;;;;;3346434;42;20159;-58
2022/09/30 11:04:07;;;;;;;10.32;4.50;;;;;;;;;;3343584;42;20152;-60
2022/09/30 11:06:36;;;;;;;10.68;4.18;;;;;;;;;;3346954;42;20100;-59
2022/09/30 11:09:39;;;;;;;8.73;4.20;;;;;;;;;;3349603;42;20085;-62
2022/09/30 11:12:30;;;;;;;9.07;4.20;;;;;;;;;;3350224;42;20708;-60
2022/09/30 11:15:29;;;;;;;10.13;4.07;;;;;;;;;;3346823;42;20096;-60
2022/09/30 11:17:59;;;;;;;8.93;4.05;;;;;;;;;;3340126;42;20200;-61
2022/09/30 11:20:34;;;;;;;8.40;4.40;;;;;;;;;;3345524;42;20574;-60
2022/09/30 11:23:09;;;;;;;9.55;4.43;;;;;;;;;;3345292;42;20081;-60
2022/09/30 11:26:01;;;;;;;8.77;4.25;;;;;;;;;;3347167;42;20701;-62
2022/09/30 11:29:05;;;;;;;9.43;4.60;;;;;;;;;;3346122;42;20089;-59
2022/09/30 11:31:44;;;;;;;9.50;4.45;;;;;;;;;;3345739;42;20555;-60
2022/09/30 11:34:47;;;;;;;9.55;4.47;;;;;;;;;;3345667;42;20195;-60
2022/09/30 11:37:26;;;;;;;9.15;4.30;;;;;;;;;;3327451;42;20100;-59
2022/09/30 11:40:15;;;;;;;9.25;4.32;;;;;;;;;;3347315;42;20096;-59
2022/09/30 11:43:04;;;;;;;9.03;4.10;;;;;;;;;;3340587;42;20175;-63
2022/09/30 11:45:33;;;;;;;12.77;6.50;;;;;;;;;;3348123;42;20156;-58
2022/09/30 11:48:08;;;;;;;20.75;7.68;;;;;;;;;;3347973;42;20590;-61
2022/09/30 11:50:55;;;;;;;15.38;6.35;;;;;;;;;;3348301;42;20089;-60
2022/09/30 11:53:38;;;;;;;14.57;6.43;;;;;;;;;;3348594;42;20132;-63
2022/09/30 11:56:43;;;;;;;13.30;6.63;;;;;;;;;;3347527;42;20099;-63
2022/09/30 11:59:24;;;;;;;14.90;6.47;;;;;;;;;;3346060;42;20140;-61
2022/09/30 12:01:51;;;;;;;13.95;6.25;;;;;;;;;;3346222;42;20140;-60
2022/09/30 12:04:28;;;;;;;13.85;6.93;;;;;;;;;;3347197;42;20132;-60
2022/09/30 12:07:00;;;;;;;14.93;6.75;;;;;;;;;;3347007;42;20097;-62
2022/09/30 12:09:41;;;;;;;14.93;7.07;;;;;;;;;;3346684;42;20168;-61
2022/09/30 12:12:09;;;;;;;13.25;6.60;;;;;;;;;;3343659;42;20598;-59
2022/09/30 12:15:04;;;;;;;13.52;6.60;;;;;;;;;;3345188;42;20139;-60
2022/09/30 12:17:31;;;;;;;12.95;6.40;;;;;;;;;;3346620;42;20089;-62
2022/09/30 12:20:30;;;;;;;12.85;6.35;;;;;;;;;;3347896;42;20100;-63
2022/09/30 12:23:19;;;;;;;14.77;6.53;;;;;;;;;;3345189;42;20100;-61
2022/09/30 12:25:59;;;;;;;15.77;6.15;;;;;;;;;;3346562;42;20180;-63
2022/09/30 12:31:42;;;;;;;18.50;6.55;;;;;;;;;;3347203;42;20567;-61
2022/09/30 12:34:19;;;;;;;15.00;7.10;;;;;;;;;;3346297;42;20099;-62
2022/09/30 12:37:01;;;;;;;16.07;7.00;;;;;;;;;;3348288;42;20084;-62
2022/09/30 12:40:00;;;;;;;15.27;7.38;;;;;;;;;;3343868;42;20095;-63
2022/09/30 12:42:55;;;;;;;16.92;7.10;;;;;;;;;;3346835;42;20204;-60
2022/09/30 12:45:36;;;;;;;14.50;6.82;;;;;;;;;;3346950;42;20089;-60
2022/09/30 12:48:07;;;;;;;18.17;7.13;;;;;;;;;;3348227;42;20685;-62
2022/09/30 12:50:39;;;;;;;14.93;6.87;;;;;;;;;;3339207;42;20108;-63
2022/09/30 12:53:19;;;;;;;14.85;7.45;;;;;;;;;;3345850;42;20642;-62
2022/09/30 12:55:46;;;;;;;15.43;6.50;;;;;;;;;;3348098;42;20085;-60
2022/09/30 12:58:22;;;;;;;12.60;6.15;;;;;;;;;;3346100;42;20547;-62
2022/09/30 13:01:06;;;;;;;13.70;5.60;;;;;;;;;;3346476;42;20151;-63
2022/09/30 13:03:59;;;;;;;11.47;5.53;;;;;;;;;;3345579;42;20479;-61
2022/09/30 13:06:27;;;;;;;10.90;4.88;;;;;;;;;;3345885;42;20089;-62
2022/09/30 13:08:57;;;;;;;11.95;5.20;;;;;;;;;;3346392;42;20097;-61
2022/09/30 13:11:37;;;;;;;11.45;5.50;;;;;;;;;;3347579;42;20196;-61
2022/09/30 13:14:29;;;;;;;10.48;4.60;;;;;;;;;;3348012;42;20103;-61
2022/09/30 13:17:20;;;;;;;10.87;4.93;;;;;;;;;;3345945;42;20144;-60
2022/09/30 13:19:53;;;;;;;15.93;7.15;;;;;;;;;;3345489;42;20115;-60
2022/09/30 13:22:28;;;;;;;10.80;4.75;;;;;;;;;;3347450;42;20148;-59
2022/09/30 13:24:57;;;;;;;11.07;4.68;;;;;;;;;;3347545;42;20089;-59
2022/09/30 13:27:45;;;;;;;12.02;5.13;;;;;;;;;;3348589;42;20163;-60
2022/09/30 13:30:16;;;;;;;12.90;5.10;;;;;;;;;;3346311;42;20135;-60
2022/09/30 13:32:44;;;;;;;9.68;4.47;;;;;;;;;;3346675;42;20564;-60
2022/09/30 13:35:29;;;;;;;9.93;4.85;;;;;;;;;;3346458;42;20093;-57
2022/09/30 13:38:13;;;;;;;9.90;4.65;;;;;;;;;;3345635;42;20572;-59
2022/09/30 13:40:48;;;;;;;10.85;5.60;;;;;;;;;;3346460;42;20077;-59
2022/09/30 13:43:39;;;;;;;12.17;5.10;;;;;;;;;;3347758;42;20093;-60
2022/09/30 13:46:15;;;;;;;12.48;4.90;;;;;;;;;;3346297;42;20100;-67
2022/09/30 13:48:44;;;;;;;12.63;5.03;;;;;;;;;;3343924;42;20085;-61
2022/09/30 13:51:13;;;;;;;10.65;4.72;;;;;;;;;;3346296;42;20140;-61
2022/09/30 13:53:44;;;;;;;12.25;5.00;;;;;;;;;;3345961;42;20103;-62
2022/09/30 13:56:26;;;;;;;10.00;4.53;;;;;;;;;;3346172;42;20099;-63
2022/09/30 13:59:36;;;;;;;11.10;4.78;;;;;;;;;;3343985;42;20151;-60
2022/09/30 14:02:39;;;;;;;16.90;4.55;;;;;;;;;;3344608;42;20598;-61
2022/09/30 14:05:43;;;;;;;11.40;5.22;;;;;;;;;;3348147;42;20095;-61
2022/09/30 14:08:16;;;;;;;9.15;4.07;;;;;;;;;;3346674;42;20159;-60
2022/09/30 14:11:04;;;;;;;8.33;3.80;;;;;;;;;;3346358;42;20113;-61
2022/09/30 14:13:33;;;;;;;10.43;4.55;;;;;;;;;;3344468;42;20606;-60
2022/09/30 14:16:21;;;;;;;9.85;4.25;;;;;;;;;;3348584;42;20081;-61
2022/09/30 14:19:05;;;;;;;9.40;3.83;;;;;;;;;;3345690;42;20089;-60
2022/09/30 14:21:40;;;;;;;9.10;3.58;;;;;;;;;;3347597;42;20121;-60
2022/09/30 14:24:14;;;;;;;9.10;4.00;;;;;;;;;;3346134;42;20589;-61
2022/09/30 14:26:53;;;;;;;11.77;3.95;;;;;;;;;;3348638;42;20100;-60
2022/09/30 14:29:25;;;;;;;9.20;3.95;;;;;;;;;;3348815;42;20093;-60
2022/09/30 14:31:51;;;;;;;8.45;3.60;;;;;;;;;;3347789;42;20209;-65
2022/09/30 14:34:17;;;;;;;8.50;3.90;;;;;;;;;;3346672;42;20092;-60
2022/09/30 14:36:43;;;;;;;8.20;3.70;;;;;;;;;;3346092;42;20223;-62
2022/09/30 14:39:28;;;;;;;8.90;3.28;;;;;;;;;;3348091;42;20094;-60
2022/09/30 14:41:57;;;;;;;8.68;3.47;;;;;;;;;;3349239;42;20093;-61
2022/09/30 14:44:25;;;;;;;7.35;3.40;;;;;;;;;;3347739;42;20096;-60
2022/09/30 14:46:51;;;;;;;8.90;3.83;;;;;;;;;;3347837;42;20472;-62
2022/09/30 14:49:19;;;;;;;9.38;4.07;;;;;;;;;;3349146;42;20077;-62
2022/09/30 14:51:47;;;;;;;8.43;3.50;;;;;;;;;;3349172;42;20622;-59
2022/09/30 14:54:25;;;;;;;10.10;3.75;;;;;;;;;;3347798;42;20096;-60
2022/09/30 14:56:53;;;;;;;9.73;4.20;;;;;;;;;;3349338;42;20159;-60
2022/09/30 14:59:27;;;;;;;9.23;3.77;;;;;;;;;;3349021;42;20187;-60
2022/09/30 15:02:11;;;;;;;9.38;3.60;;;;;;;;;;3347290;42;20083;-60
2022/09/30 15:04:38;;;;;;;10.63;4.50;;;;;;;;;;3347346;42;20126;-61
2022/09/30 15:07:05;;;;;;;11.57;4.43;;;;;;;;;;3347752;42;20162;-60
2022/09/30 15:09:36;;;;;;;11.00;4.30;;;;;;;;;;3348516;42;20137;-61
2022/09/30 15:12:06;;;;;;;9.13;4.10;;;;;;;;;;3348842;42;20101;-62
2022/09/30 15:14:32;;;;;;;12.00;4.63;;;;;;;;;;3347243;42;20109;-60
2022/09/30 15:16:58;;;;;;;13.23;4.97;;;;;;;;;;3348656;42;20107;-61